Time;durP1;ratioP1;P1;durP2;ratioP2;P2;SDS_P1;SDS_P2;PMS_P1;PMS_P2;Temp;Humidity;BMP_temperature;BMP_pressure;BME280_temperature;BME280_humidity;BME280_pressure;Samples;Min_cycle;Max_cycle;Signal;HPM_P1;HPM_P2
2023/05/24 00:01:24;;;;;;;0.40;0.40;;;17.40;99.90;;;;;;5016665;28;20071;-95
2023/05/24 00:03:51;;;;;;;0.13;0.13;;;17.40;99.90;;;;;;5017550;28;20022;-95
2023/05/24 00:06:18;;;;;;;0.40;0.30;;;17.30;99.90;;;;;;5016716;28;20026;-95
2023/05/24 00:08:44;;;;;;;0.80;0.55;;;17.20;99.90;;;;;;5016684;28;20030;-95
2023/05/24 00:11:12;;;;;;;0.35;0.20;;;17.20;99.90;;;;;;4998815;28;20072;-95
2023/05/24 00:13:38;;;;;;;0.10;0.10;;;17.20;99.90;;;;;;5005236;28;20532;-95
2023/05/24 00:16:03;;;;;;;3.50;0.50;;;17.00;99.90;;;;;;4998775;28;20037;-95
2023/05/24 00:18:32;;;;;;;0.30;0.30;;;17.10;99.90;;;;;;5016290;28;20033;-95
2023/05/24 00:20:58;;;;;;;0.10;0.10;;;17.20;99.90;;;;;;5016351;28;20026;-95
2023/05/24 00:23:26;;;;;;;0.38;0.28;;;17.10;99.90;;;;;;4999062;28;20033;-95
2023/05/24 00:25:52;;;;;;;0.30;0.30;;;17.30;99.90;;;;;;5015692;28;20486;-95
2023/05/24 00:28:18;;;;;;;0.20;0.20;;;17.20;99.90;;;;;;5016051;28;20026;-95
2023/05/24 00:30:43;;;;;;;1.55;0.22;;;17.30;99.90;;;;;;4998831;28;20030;-95
2023/05/24 00:33:09;;;;;;;0.43;0.43;;;17.40;99.90;;;;;;5015954;28;20018;-95
2023/05/24 00:35:35;;;;;;;0.50;0.50;;;17.30;99.90;;;;;;5015879;28;20455;-94
2023/05/24 00:38:00;;;;;;;1.08;0.32;;;17.10;99.90;;;;;;4998397;28;20030;-95
2023/05/24 00:40:26;;;;;;;0.17;0.17;;;17.10;99.90;;;;;;4998184;28;20026;-94
2023/05/24 00:42:52;;;;;;;0.20;0.20;;;17.00;99.90;;;;;;4998408;28;20030;-95
2023/05/24 00:45:17;;;;;;;0.25;0.25;;;16.90;99.90;;;;;;5016176;28;20119;-95
2023/05/24 00:47:44;;;;;;;0.55;0.25;;;16.80;99.90;;;;;;4998008;28;20037;-95
2023/05/24 00:50:13;;;;;;;0.28;0.28;;;16.90;99.90;;;;;;4998206;28;20552;-95
2023/05/24 00:52:40;;;;;;;0.10;0.10;;;16.90;99.90;;;;;;4998153;28;20149;-95
2023/05/24 00:55:06;;;;;;;0.30;0.30;;;16.90;99.90;;;;;;4997942;28;20026;-95
2023/05/24 00:57:34;;;;;;;0.35;0.35;;;16.80;99.90;;;;;;5014743;28;20040;-95
2023/05/24 01:00:00;;;;;;;0.50;0.45;;;16.70;99.90;;;;;;5015748;28;20032;-95
2023/05/24 01:02:25;;;;;;;3.03;0.50;;;16.80;99.90;;;;;;4998139;28;20025;-95
2023/05/24 01:04:51;;;;;;;0.10;0.10;;;16.70;99.90;;;;;;5015631;28;20433;-94
2023/05/24 01:07:52;;;;;;;0.17;0.17;;;16.70;99.90;;;;;;5015258;28;20041;-95
2023/05/24 01:10:30;;;;;;;0.25;0.25;;;16.70;99.90;;;;;;5015023;28;20557;-95
2023/05/24 01:13:15;;;;;;;0.10;0.10;;;16.70;99.90;;;;;;5015181;28;20553;-94
2023/05/24 01:15:51;;;;;;;0.25;0.25;;;16.80;99.90;;;;;;5035518;28;20021;-95
2023/05/24 01:18:25;;;;;;;0.30;0.30;;;16.80;99.90;;;;;;5034721;28;20037;-95
2023/05/24 01:21:05;;;;;;;0.20;0.20;;;16.80;99.90;;;;;;5035116;28;20026;-94
2023/05/24 01:23:49;;;;;;;0.10;0.10;;;16.90;99.90;;;;;;5034888;28;20096;-94
2023/05/24 01:26:37;;;;;;;0.38;0.30;;;17.00;99.90;;;;;;5035328;28;20041;-94
2023/05/24 01:29:04;;;;;;;0.90;0.75;;;16.80;99.90;;;;;;5034646;28;20477;-94
2023/05/24 01:31:30;;;;;;;0.10;0.10;;;16.80;99.90;;;;;;5035190;28;20043;-94
2023/05/24 01:33:56;;;;;;;0.05;0.05;;;16.90;99.90;;;;;;5034836;28;20026;-94
2023/05/24 01:36:21;;;;;;;0.40;0.40;;;16.60;99.90;;;;;;5034484;28;20065;-95
2023/05/24 01:38:49;;;;;;;0.13;0.13;;;16.60;99.90;;;;;;5016746;28;20418;-94
2023/05/24 01:41:27;;;;;;;0.20;0.20;;;16.60;99.90;;;;;;5035405;28;20060;-94
2023/05/24 01:44:10;;;;;;;0.10;0.10;;;16.70;99.90;;;;;;5034460;28;20037;-95
2023/05/24 01:46:37;;;;;;;0.20;0.20;;;16.60;99.90;;;;;;5016147;28;20136;-95
2023/05/24 01:49:17;;;;;;;0.15;0.13;;;16.80;99.90;;;;;;4996811;28;20084;-94
2023/05/24 01:51:52;;;;;;;0.00;0.00;;;16.70;99.90;;;;;;5014623;28;20026;-94
2023/05/24 01:54:22;;;;;;;0.20;0.20;;;16.80;99.90;;;;;;5014377;28;20044;-94
2023/05/24 01:56:51;;;;;;;0.30;0.30;;;17.00;99.90;;;;;;4996925;28;20475;-94
2023/05/24 01:59:17;;;;;;;0.32;0.32;;;17.00;99.90;;;;;;5014643;28;20034;-94
2023/05/24 02:01:43;;;;;;;0.03;0.03;;;16.90;99.90;;;;;;5014164;28;20026;-94
2023/05/24 02:04:09;;;;;;;0.00;0.00;;;16.90;99.90;;;;;;5014437;28;20117;-95
2023/05/24 02:06:34;;;;;;;0.10;0.10;;;16.80;99.90;;;;;;5014262;28;20478;-94
2023/05/24 02:09:00;;;;;;;0.10;0.10;;;16.80;99.90;;;;;;5014326;28;20030;-95
2023/05/24 02:11:26;;;;;;;0.25;0.25;;;16.80;99.90;;;;;;5014286;28;20072;-94
2023/05/24 02:13:52;;;;;;;0.17;0.17;;;16.70;99.90;;;;;;5032810;28;20058;-94
2023/05/24 02:16:17;;;;;;;0.10;0.10;;;16.80;99.90;;;;;;5016281;28;20091;-95
2023/05/24 02:18:45;;;;;;;0.15;0.08;;;16.90;99.90;;;;;;5033785;28;20644;-94
2023/05/24 02:21:11;;;;;;;0.10;0.10;;;16.90;99.90;;;;;;5033803;28;20067;-95
2023/05/24 02:23:37;;;;;;;0.05;0.05;;;16.90;99.90;;;;;;5033588;28;20114;-95
2023/05/24 02:26:03;;;;;;;0.05;0.05;;;16.90;99.90;;;;;;5033852;28;20557;-94
2023/05/24 02:28:31;;;;;;;0.10;0.10;;;16.60;99.90;;;;;;5015910;28;20481;-95
2023/05/24 02:30:57;;;;;;;0.30;0.30;;;16.90;99.90;;;;;;5034087;28;20470;-94
2023/05/24 02:33:25;;;;;;;0.00;0.00;;;17.00;99.90;;;;;;5015701;28;20025;-95
2023/05/24 02:35:51;;;;;;;0.00;0.00;;;17.00;99.90;;;;;;5033809;28;20021;-95
2023/05/24 02:38:16;;;;;;;0.00;0.00;;;16.90;99.90;;;;;;5015545;28;20041;-94
2023/05/24 02:40:42;;;;;;;0.00;0.00;;;16.80;99.90;;;;;;5015749;28;20120;-95
2023/05/24 02:43:08;;;;;;;0.10;0.10;;;16.70;99.90;;;;;;5033739;28;20025;-95
2023/05/24 02:45:35;;;;;;;0.10;0.10;;;16.70;99.90;;;;;;5015913;28;20381;-94
2023/05/24 02:48:01;;;;;;;0.93;0.70;;;16.60;99.90;;;;;;5033264;28;20571;-94
2023/05/24 02:50:26;;;;;;;1.20;0.20;;;16.50;99.90;;;;;;5033349;28;20017;-95
2023/05/24 02:52:52;;;;;;;0.15;0.15;;;16.50;99.90;;;;;;5015662;28;20470;-94
2023/05/24 02:55:18;;;;;;;0.20;0.20;;;16.50;99.90;;;;;;5015735;28;20032;-95
2023/05/24 02:57:43;;;;;;;0.10;0.10;;;16.40;99.90;;;;;;5016206;28;20037;-94
2023/05/24 03:00:10;;;;;;;0.08;0.08;;;16.40;99.90;;;;;;5015969;28;20033;-94
2023/05/24 03:02:39;;;;;;;0.00;0.00;;;16.60;99.90;;;;;;5015848;28;20037;-94
2023/05/24 03:05:06;;;;;;;0.10;0.10;;;16.80;99.90;;;;;;5015730;28;20056;-94
2023/05/24 03:07:32;;;;;;;0.00;0.00;;;16.60;99.90;;;;;;5033205;28;20036;-95
2023/05/24 03:09:58;;;;;;;0.10;0.10;;;16.40;99.90;;;;;;5015379;28;20014;-94
2023/05/24 03:12:23;;;;;;;0.63;0.38;;;16.60;99.90;;;;;;5033900;28;20045;-94
2023/05/24 03:14:49;;;;;;;0.10;0.10;;;16.40;99.90;;;;;;5015237;28;20392;-94
2023/05/24 03:17:15;;;;;;;1.27;0.52;;;16.30;99.90;;;;;;5032900;28;20038;-93
2023/05/24 03:19:41;;;;;;;0.15;0.15;;;16.20;99.90;;;;;;5015542;28;20112;-95
2023/05/24 03:22:07;;;;;;;0.22;0.22;;;16.30;99.90;;;;;;5018865;28;20421;-94
2023/05/24 03:24:33;;;;;;;2.28;0.43;;;16.20;99.90;;;;;;5037024;28;20037;-95
2023/05/24 03:26:58;;;;;;;0.10;0.10;;;16.20;99.90;;;;;;5019324;28;20120;-94
2023/05/24 03:29:24;;;;;;;0.82;0.57;;;16.00;99.90;;;;;;5019276;28;20152;-94
2023/05/24 03:31:50;;;;;;;0.10;0.10;;;16.10;99.90;;;;;;5036884;28;20105;-94
2023/05/24 03:34:15;;;;;;;0.20;0.20;;;16.40;99.90;;;;;;5018843;28;20511;-95
2023/05/24 03:36:42;;;;;;;0.03;0.03;;;16.20;99.90;;;;;;5018929;28;20034;-94
2023/05/24 03:39:08;;;;;;;0.13;0.13;;;16.10;99.90;;;;;;5036991;28;20033;-94
2023/05/24 03:41:33;;;;;;;0.17;0.17;;;16.00;99.90;;;;;;5019406;28;20083;-95
2023/05/24 03:43:59;;;;;;;0.20;0.20;;;16.00;99.90;;;;;;5036713;28;20022;-94
2023/05/24 03:46:25;;;;;;;9.85;1.48;;;16.00;99.90;;;;;;5037227;28;20116;-94
2023/05/24 03:48:51;;;;;;;1.35;0.35;;;15.90;99.90;;;;;;5019294;28;20045;-94
2023/05/24 03:51:16;;;;;;;0.30;0.30;;;15.80;99.90;;;;;;5019475;28;20071;-95
2023/05/24 03:53:42;;;;;;;0.10;0.10;;;15.80;99.90;;;;;;5036719;28;20048;-94
2023/05/24 03:56:08;;;;;;;0.22;0.22;;;15.90;99.90;;;;;;5036657;28;20102;-95
2023/05/24 03:58:33;;;;;;;0.25;0.25;;;15.80;99.90;;;;;;5018907;28;20083;-94
2023/05/24 04:00:59;;;;;;;0.32;0.32;;;15.80;99.90;;;;;;5019296;28;20026;-95
2023/05/24 04:03:25;;;;;;;0.10;0.10;;;15.90;99.90;;;;;;5018480;28;20373;-95
2023/05/24 04:05:52;;;;;;;0.35;0.35;;;15.70;99.90;;;;;;5018792;28;20022;-94
2023/05/24 04:08:18;;;;;;;0.60;0.43;;;15.80;99.90;;;;;;5036591;28;20026;-94
2023/05/24 04:10:43;;;;;;;0.20;0.20;;;15.80;99.90;;;;;;5018420;28;20036;-95
2023/05/24 04:13:09;;;;;;;1.90;1.55;;;15.70;99.90;;;;;;5005142;28;20050;-94
2023/05/24 04:15:36;;;;;;;0.43;0.35;;;15.60;99.90;;;;;;5016590;28;20177;-94
2023/05/24 04:18:02;;;;;;;0.63;0.47;;;15.70;99.90;;;;;;5016554;28;20034;-95
2023/05/24 04:20:28;;;;;;;0.45;0.45;;;15.80;99.90;;;;;;4998853;28;20026;-95
2023/05/24 04:22:54;;;;;;;0.85;0.85;;;15.70;99.90;;;;;;4998772;28;20084;-95
2023/05/24 04:25:21;;;;;;;0.85;0.55;;;15.80;99.90;;;;;;5016041;28;20033;-94
2023/05/24 04:27:47;;;;;;;0.20;0.20;;;15.80;99.90;;;;;;4998783;28;20393;-94
2023/05/24 04:30:15;;;;;;;0.55;0.40;;;15.90;99.90;;;;;;4998581;28;20087;-94
2023/05/24 04:32:43;;;;;;;0.30;0.30;;;15.90;99.90;;;;;;4996988;28;20080;-94
2023/05/24 04:35:09;;;;;;;0.50;0.45;;;15.70;99.90;;;;;;5016399;28;20034;-94
2023/05/24 04:37:34;;;;;;;3.72;0.55;;;15.60;99.90;;;;;;5015611;28;20034;-94
2023/05/24 04:40:02;;;;;;;0.25;0.20;;;15.70;99.90;;;;;;5016038;28;20025;-93
2023/05/24 04:42:31;;;;;;;0.73;0.73;;;15.70;99.90;;;;;;5015594;28;20173;-94
2023/05/24 04:44:57;;;;;;;0.52;0.45;;;15.70;99.90;;;;;;5015577;28;20389;-93
2023/05/24 04:47:24;;;;;;;0.05;0.05;;;15.80;99.90;;;;;;5015215;28;20022;-93
2023/05/24 04:49:50;;;;;;;1.02;0.95;;;15.70;99.90;;;;;;4998208;28;20536;-94
2023/05/24 04:52:16;;;;;;;0.98;0.88;;;15.70;99.90;;;;;;5015683;28;20025;-95
2023/05/24 04:54:42;;;;;;;0.20;0.20;;;15.70;99.90;;;;;;4997952;28;20025;-94
2023/05/24 04:57:08;;;;;;;0.70;0.68;;;15.60;99.90;;;;;;5015370;28;20040;-95
2023/05/24 04:59:33;;;;;;;0.30;0.30;;;15.60;99.90;;;;;;5034075;28;20485;-94
2023/05/24 05:01:59;;;;;;;1.13;1.02;;;15.60;99.90;;;;;;5035260;28;20029;-94
2023/05/24 05:04:24;;;;;;;0.55;0.30;;;15.60;99.90;;;;;;5017484;28;20029;-95
2023/05/24 05:06:51;;;;;;;0.20;0.20;;;15.70;99.90;;;;;;5018369;28;20489;-94
2023/05/24 05:09:17;;;;;;;0.32;0.32;;;15.70;99.90;;;;;;5035249;28;20559;-95
2023/05/24 05:11:45;;;;;;;0.20;0.20;;;15.60;99.90;;;;;;5035124;28;20025;-95
2023/05/24 05:14:11;;;;;;;0.20;0.20;;;15.80;99.90;;;;;;5007258;28;20125;-95
2023/05/24 05:16:37;;;;;;;0.65;0.63;;;15.70;99.90;;;;;;5014616;28;20594;-95
2023/05/24 05:19:03;;;;;;;0.75;0.75;;;15.70;99.90;;;;;;5015293;28;20042;-95
2023/05/24 05:21:33;;;;;;;0.00;0.00;;;15.60;99.90;;;;;;5016486;28;20018;-85
2023/05/24 05:24:00;;;;;;;0.55;0.55;;;15.90;99.90;;;;;;5020895;28;20053;-85
2023/05/24 05:26:26;;;;;;;0.75;0.35;;;16.20;99.90;;;;;;5013787;28;20037;-83
2023/05/24 05:28:53;;;;;;;0.28;0.28;;;16.20;99.90;;;;;;5013623;28;20105;-84
2023/05/24 05:31:19;;;;;;;0.55;0.50;;;16.10;99.90;;;;;;5013129;28;20340;-84
2023/05/24 05:33:45;;;;;;;0.55;0.30;;;16.00;99.90;;;;;;5014131;28;20149;-83
2023/05/24 05:36:10;;;;;;;1.67;1.20;;;16.10;99.90;;;;;;5013474;28;20084;-83
2023/05/24 05:38:36;;;;;;;0.52;0.52;;;16.20;99.90;;;;;;5013458;28;20545;-84
2023/05/24 05:41:01;;;;;;;0.40;0.40;;;16.20;99.90;;;;;;5013409;28;20422;-84
2023/05/24 05:43:28;;;;;;;0.17;0.17;;;16.10;99.90;;;;;;5012961;28;20037;-83
2023/05/24 05:45:54;;;;;;;0.32;0.32;;;16.10;99.90;;;;;;5013218;28;20073;-83
2023/05/24 05:48:20;;;;;;;0.25;0.25;;;15.90;99.90;;;;;;5013034;28;20443;-83
2023/05/24 05:50:45;;;;;;;0.28;0.22;;;15.90;99.90;;;;;;5013219;28;20053;-83
2023/05/24 05:53:11;;;;;;;0.65;0.65;;;16.00;99.90;;;;;;5014060;28;20026;-84
2023/05/24 05:55:37;;;;;;;0.30;0.30;;;16.00;99.90;;;;;;5013100;28;20045;-83
2023/05/24 05:58:02;;;;;;;0.63;0.63;;;16.10;99.90;;;;;;5012960;28;20045;-83
2023/05/24 06:00:28;;;;;;;0.38;0.38;;;16.20;99.90;;;;;;5013408;28;20022;-83
2023/05/24 06:02:53;;;;;;;7.10;1.10;;;16.10;99.90;;;;;;5012815;28;20440;-83
2023/05/24 06:05:19;;;;;;;0.08;0.08;;;16.10;99.90;;;;;;5013360;28;20112;-83
2023/05/24 06:07:46;;;;;;;0.85;0.65;;;16.00;99.90;;;;;;5013024;28;20038;-84
2023/05/24 06:10:12;;;;;;;0.20;0.20;;;15.80;99.90;;;;;;5013017;28;20034;-84
2023/05/24 06:12:39;;;;;;;0.10;0.10;;;16.00;99.90;;;;;;5021846;28;20544;-84
2023/05/24 06:15:08;;;;;;;0.30;0.30;;;16.00;99.90;;;;;;5013978;28;20029;-83
2023/05/24 06:17:35;;;;;;;0.10;0.10;;;16.20;99.90;;;;;;5032567;28;20036;-84
2023/05/24 06:20:10;;;;;;;0.80;0.65;;;16.00;99.90;;;;;;5032590;28;20624;-84
2023/05/24 06:22:37;;;;;;;0.10;0.10;;;16.00;99.90;;;;;;5032435;28;20029;-84
2023/05/24 06:25:04;;;;;;;1.23;0.47;;;16.10;99.90;;;;;;5032736;28;20107;-85
2023/05/24 06:27:29;;;;;;;0.20;0.20;;;16.00;99.90;;;;;;5043920;28;20030;-83
2023/05/24 06:29:55;;;;;;;0.55;0.55;;;16.10;99.90;;;;;;5031964;28;20429;-83
2023/05/24 06:32:21;;;;;;;0.85;0.65;;;16.10;99.90;;;;;;5040395;28;20501;-84
2023/05/24 06:34:47;;;;;;;0.22;0.22;;;16.10;99.90;;;;;;5046652;28;20033;-82
2023/05/24 06:37:16;;;;;;;0.10;0.10;;;16.10;99.90;;;;;;5037680;28;20040;-85
2023/05/24 06:39:42;;;;;;;0.75;0.63;;;16.10;99.90;;;;;;5052447;28;20039;-83
2023/05/24 06:42:07;;;;;;;0.30;0.20;;;16.10;99.90;;;;;;5039024;28;20018;-83
2023/05/24 06:44:33;;;;;;;0.10;0.10;;;16.00;99.90;;;;;;5031795;28;20397;-83
2023/05/24 06:47:02;;;;;;;0.28;0.28;;;16.10;99.90;;;;;;5031966;28;20025;-84
2023/05/24 06:49:28;;;;;;;0.10;0.10;;;16.00;99.90;;;;;;5033035;28;20053;-84
2023/05/24 06:51:54;;;;;;;2.42;0.38;;;16.10;99.90;;;;;;5032043;28;20064;-83
2023/05/24 06:54:20;;;;;;;0.20;0.20;;;16.10;99.90;;;;;;5045281;28;20056;-83
2023/05/24 06:56:46;;;;;;;0.17;0.17;;;16.00;99.90;;;;;;5051050;28;20029;-83
2023/05/24 06:59:11;;;;;;;0.30;0.30;;;16.10;99.90;;;;;;5037328;28;20099;-84
2023/05/24 07:01:38;;;;;;;0.45;0.30;;;16.30;99.90;;;;;;5032363;28;20425;-88
2023/05/24 07:04:08;;;;;;;0.68;0.68;;;16.10;99.90;;;;;;5044523;28;20489;-84
2023/05/24 07:06:34;;;;;;;0.65;0.50;;;16.00;99.90;;;;;;5035108;28;20366;-87
2023/05/24 07:09:03;;;;;;;0.40;0.20;;;16.20;99.90;;;;;;5038610;28;20086;-85
2023/05/24 07:11:29;;;;;;;0.22;0.22;;;16.30;99.90;;;;;;5049715;28;20033;-84
2023/05/24 07:13:56;;;;;;;0.93;0.73;;;16.40;99.90;;;;;;5022107;28;20041;-84
2023/05/24 07:16:21;;;;;;;0.20;0.20;;;16.50;99.90;;;;;;5052078;28;20424;-85
2023/05/24 07:18:47;;;;;;;0.10;0.10;;;16.60;99.90;;;;;;5036182;28;20042;-85
2023/05/24 07:21:12;;;;;;;0.10;0.10;;;16.40;99.90;;;;;;5026955;28;20037;-85
2023/05/24 07:23:38;;;;;;;0.30;0.28;;;16.30;99.90;;;;;;5019898;28;20083;-85
2023/05/24 07:26:04;;;;;;;1.55;0.28;;;16.50;99.90;;;;;;5051345;28;20512;-85
2023/05/24 07:28:31;;;;;;;0.38;0.20;;;16.40;99.90;;;;;;5051599;28;20025;-85
2023/05/24 07:30:56;;;;;;;0.88;0.65;;;16.40;99.90;;;;;;5033890;28;20064;-84
2023/05/24 07:33:22;;;;;;;0.20;0.20;;;16.20;99.90;;;;;;5051626;28;20454;-85
2023/05/24 07:38:28;;;;;;;0.10;0.10;;;16.30;99.90;;;;;;5691504;22;19928;-96
2023/05/24 07:40:54;;;;;;;0.40;0.40;;;16.50;99.90;;;;;;5050510;28;20036;-91
2023/05/24 07:43:19;;;;;;;0.60;0.60;;;16.40;99.90;;;;;;5050702;28;20388;-89
2023/05/24 07:45:45;;;;;;;0.40;0.40;;;16.50;99.90;;;;;;5051341;28;20055;-89
2023/05/24 07:48:11;;;;;;;0.20;0.20;;;16.30;99.90;;;;;;5033664;28;20021;-89
2023/05/24 07:50:37;;;;;;;1.45;0.75;;;16.40;99.90;;;;;;5034087;28;20103;-89
2023/05/24 07:53:04;;;;;;;0.85;0.60;;;16.20;99.90;;;;;;5051744;28;20017;-89
2023/05/24 07:55:29;;;;;;;0.38;0.38;;;16.10;99.90;;;;;;5051078;28;20064;-89
2023/05/24 07:57:55;;;;;;;0.82;0.68;;;16.20;99.90;;;;;;5033492;28;20037;-89
2023/05/24 08:00:21;;;;;;;0.43;0.43;;;16.30;99.90;;;;;;5051586;28;20418;-89
2023/05/24 08:02:47;;;;;;;0.20;0.20;;;16.40;99.90;;;;;;5051896;28;20040;-89
2023/05/24 08:05:14;;;;;;;1.08;0.52;;;16.50;99.90;;;;;;5034109;28;20033;-89
2023/05/24 08:07:40;;;;;;;0.10;0.10;;;16.40;99.90;;;;;;5054008;28;20481;-89
2023/05/24 08:10:09;;;;;;;0.40;0.40;;;16.30;99.90;;;;;;5054524;28;20095;-89
2023/05/24 08:12:34;;;;;;;1.27;0.98;;;16.20;99.90;;;;;;5055367;28;20386;-89
2023/05/24 08:15:00;;;;;;;0.50;0.50;;;16.00;99.90;;;;;;5054968;28;20029;-89
2023/05/24 08:17:26;;;;;;;1.33;0.85;;;16.10;99.90;;;;;;5036972;28;20033;-89
2023/05/24 08:19:52;;;;;;;0.25;0.25;;;16.10;99.90;;;;;;5036972;28;20033;-89
2023/05/24 08:22:18;;;;;;;0.22;0.22;;;16.00;99.90;;;;;;5037289;28;20116;-88
2023/05/24 08:24:44;;;;;;;1.40;0.40;;;16.10;99.90;;;;;;5054379;28;20041;-89
2023/05/24 08:27:09;;;;;;;0.20;0.20;;;16.30;99.90;;;;;;5036782;28;20021;-89
2023/05/24 08:29:36;;;;;;;0.52;0.35;;;16.50;99.90;;;;;;5054757;28;20039;-89
2023/05/24 08:32:02;;;;;;;0.45;0.30;;;16.30;99.90;;;;;;5054552;28;20076;-89
2023/05/24 08:34:28;;;;;;;0.38;0.35;;;16.30;99.90;;;;;;5036603;28;20025;-90
2023/05/24 08:36:54;;;;;;;0.10;0.10;;;16.40;99.90;;;;;;5054554;28;20044;-89
2023/05/24 08:39:20;;;;;;;0.30;0.30;;;16.30;99.90;;;;;;5054059;28;20246;-88
2023/05/24 08:41:46;;;;;;;0.30;0.30;;;16.20;99.90;;;;;;5054517;28;20580;-89
2023/05/24 08:44:12;;;;;;;0.40;0.40;;;16.40;99.90;;;;;;5054398;28;20021;-89
2023/05/24 08:46:38;;;;;;;0.52;0.52;;;16.30;99.90;;;;;;5035929;28;20083;-92
2023/05/24 08:49:04;;;;;;;0.65;0.28;;;16.20;99.90;;;;;;5038301;28;20448;-94
2023/05/24 08:51:30;;;;;;;0.10;0.10;;;16.10;99.90;;;;;;5037429;28;20063;-89
2023/05/24 08:54:00;;;;;;;0.35;0.35;;;16.20;99.90;;;;;;5052960;28;20032;-89
2023/05/24 08:56:27;;;;;;;0.40;0.35;;;16.40;99.90;;;;;;5036579;28;20029;-89
2023/05/24 08:58:54;;;;;;;0.20;0.17;;;16.30;99.90;;;;;;5053014;28;20416;-89
2023/05/24 09:01:20;;;;;;;0.68;0.68;;;16.30;99.90;;;;;;5054238;28;20029;-88
2023/05/24 09:03:47;;;;;;;0.45;0.45;;;16.30;99.90;;;;;;5034840;28;20047;-88
2023/05/24 09:06:15;;;;;;;0.52;0.47;;;16.40;99.90;;;;;;5036188;28;20516;-87
2023/05/24 09:08:42;;;;;;;0.20;0.20;;;16.50;99.90;;;;;;5053384;28;20029;-89
2023/05/24 09:11:08;;;;;;;0.40;0.40;;;16.50;99.90;;;;;;5053108;28;20515;-89
2023/05/24 09:13:34;;;;;;;0.30;0.30;;;16.40;99.90;;;;;;5055808;28;20025;-90
2023/05/24 09:16:01;;;;;;;1.55;0.77;;;16.40;99.90;;;;;;5073950;28;20028;-89
2023/05/24 09:18:27;;;;;;;0.77;0.77;;;16.40;99.90;;;;;;5073056;28;20147;-89
2023/05/24 09:20:53;;;;;;;0.32;0.10;;;16.50;99.90;;;;;;5074129;28;20078;-90
2023/05/24 09:23:19;;;;;;;0.55;0.55;;;16.60;99.90;;;;;;5055924;28;20481;-90
2023/05/24 09:25:45;;;;;;;0.55;0.55;;;16.50;99.90;;;;;;5073813;28;20485;-90
2023/05/24 09:28:16;;;;;;;0.43;0.43;;;16.60;99.90;;;;;;5056000;28;20077;-90
2023/05/24 09:30:57;;;;;;;0.50;0.50;;;16.90;99.90;;;;;;5073900;28;20048;-89
2023/05/24 09:33:22;;;;;;;0.28;0.28;;;17.10;99.90;;;;;;5073778;28;20064;-90
2023/05/24 09:35:48;;;;;;;0.30;0.30;;;17.30;99.90;;;;;;5073518;28;20051;-90
2023/05/24 09:38:19;;;;;;;0.63;0.20;;;17.40;99.90;;;;;;5073278;28;20068;-90
2023/05/24 09:40:45;;;;;;;1.50;0.77;;;17.50;99.90;;;;;;5054100;28;20013;-90
2023/05/24 09:43:11;;;;;;;0.52;0.50;;;17.70;99.90;;;;;;5053310;28;20392;-90
2023/05/24 09:45:45;;;;;;;0.50;0.50;;;17.70;99.90;;;;;;5035786;28;20056;-92
2023/05/24 09:48:18;;;;;;;0.10;0.10;;;17.90;99.90;;;;;;5036686;28;20036;-91
2023/05/24 09:51:04;;;;;;;0.98;0.40;;;17.80;99.90;;;;;;5053023;28;20029;-90
2023/05/24 09:53:32;;;;;;;0.30;0.30;;;17.90;99.90;;;;;;5035563;28;20037;-91
2023/05/24 09:55:59;;;;;;;0.45;0.32;;;18.10;99.90;;;;;;5035891;28;20025;-90
2023/05/24 09:58:30;;;;;;;0.43;0.43;;;18.20;99.90;;;;;;5053253;28;20091;-91
2023/05/24 10:01:07;;;;;;;0.68;0.40;;;18.20;99.90;;;;;;5053241;28;20021;-90
2023/05/24 10:03:33;;;;;;;0.30;0.20;;;18.30;99.90;;;;;;5035523;28;20063;-90
2023/05/24 10:06:00;;;;;;;0.30;0.30;;;18.40;99.90;;;;;;5052912;28;20048;-90
2023/05/24 10:08:26;;;;;;;0.20;0.20;;;18.40;99.90;;;;;;5035177;28;20133;-90
2023/05/24 10:10:54;;;;;;;0.60;0.60;;;18.30;99.90;;;;;;5053192;28;20104;-90
2023/05/24 10:13:22;;;;;;;0.10;0.10;;;18.00;99.90;;;;;;5053066;28;20115;-90
2023/05/24 10:15:47;;;;;;;0.20;0.20;;;18.00;99.90;;;;;;5035158;28;20020;-90
2023/05/24 10:18:13;;;;;;;0.05;0.05;;;18.20;99.90;;;;;;5053205;28;20393;-90
2023/05/24 10:20:39;;;;;;;0.40;0.30;;;18.30;99.90;;;;;;5052768;28;20032;-90
2023/05/24 10:23:09;;;;;;;0.35;0.35;;;18.20;99.90;;;;;;5053011;28;20028;-90
2023/05/24 10:25:40;;;;;;;0.10;0.10;;;18.20;99.90;;;;;;5035063;28;20496;-90
2023/05/24 10:28:12;;;;;;;1.42;0.30;;;18.20;99.90;;;;;;5035121;28;20017;-90
2023/05/24 10:30:53;;;;;;;0.17;0.17;;;18.30;99.90;;;;;;5051785;28;20429;-90
2023/05/24 10:33:21;;;;;;;1.00;0.73;;;18.50;99.90;;;;;;5035175;28;20396;-90
2023/05/24 10:35:47;;;;;;;0.50;0.32;;;18.70;99.90;;;;;;5052167;28;20033;-90
2023/05/24 10:38:13;;;;;;;2.05;0.57;;;19.00;99.90;;;;;;5052234;28;20132;-90
2023/05/24 10:40:42;;;;;;;0.35;0.35;;;19.00;99.90;;;;;;5052336;28;20619;-90
2023/05/24 10:43:08;;;;;;;0.57;0.57;;;19.20;99.90;;;;;;5052439;28;20020;-90
2023/05/24 10:45:39;;;;;;;1.45;0.35;;;19.30;99.90;;;;;;5052602;28;20029;-91
2023/05/24 10:48:14;;;;;;;0.73;0.40;;;19.30;99.90;;;;;;5034376;28;20395;-90
2023/05/24 10:50:40;;;;;;;0.43;0.43;;;19.50;99.90;;;;;;5052910;28;20036;-90
2023/05/24 10:53:17;;;;;;;0.22;0.22;;;19.90;99.90;;;;;;5052400;28;20024;-90
2023/05/24 10:56:07;;;;;;;0.82;0.60;;;20.20;99.90;;;;;;5052332;28;20477;-90
2023/05/24 10:58:32;;;;;;;0.30;0.30;;;20.30;99.90;;;;;;5052027;28;20033;-90
2023/05/24 11:00:58;;;;;;;0.25;0.25;;;20.60;99.90;;;;;;5034814;28;20033;-90
2023/05/24 11:03:24;;;;;;;0.35;0.25;;;20.70;99.90;;;;;;5051973;28;20040;-90
2023/05/24 11:05:53;;;;;;;0.60;0.47;;;20.70;99.90;;;;;;5034294;28;20021;-90
2023/05/24 11:08:34;;;;;;;0.20;0.20;;;20.70;99.90;;;;;;5052081;28;20112;-90
2023/05/24 11:11:05;;;;;;;0.52;0.52;;;20.70;99.90;;;;;;5052269;28;20131;-90
2023/05/24 11:13:31;;;;;;;1.55;0.63;;;20.60;99.90;;;;;;5034570;28;20432;-90
2023/05/24 11:15:57;;;;;;;0.10;0.10;;;20.50;99.90;;;;;;5052301;28;20025;-90
2023/05/24 11:18:23;;;;;;;2.15;0.82;;;20.60;99.90;;;;;;5051948;28;20441;-90
2023/05/24 11:20:49;;;;;;;0.35;0.35;;;20.70;99.90;;;;;;5034272;28;20036;-90
2023/05/24 11:23:15;;;;;;;0.47;0.47;;;20.70;99.90;;;;;;5052100;28;20032;-90
2023/05/24 11:25:42;;;;;;;0.93;0.70;;;20.80;99.90;;;;;;5052174;28;20396;-90
2023/05/24 11:28:09;;;;;;;0.30;0.30;;;21.20;99.90;;;;;;5052053;28;20029;-90
2023/05/24 11:30:46;;;;;;;0.60;0.57;;;21.50;99.90;;;;;;5051942;28;20029;-90
2023/05/24 11:33:19;;;;;;;0.88;0.57;;;21.10;99.90;;;;;;5052291;28;20032;-90
2023/05/24 11:35:45;;;;;;;0.80;0.80;;;21.20;99.90;;;;;;5033814;28;20029;-90
2023/05/24 11:38:13;;;;;;;0.65;0.55;;;20.90;99.90;;;;;;5051716;28;20056;-89
2023/05/24 11:40:45;;;;;;;0.68;0.35;;;20.90;99.90;;;;;;5051482;28;20021;-90
2023/05/24 11:43:17;;;;;;;2.20;0.65;;;21.10;99.90;;;;;;5037797;28;20033;-90
2023/05/24 11:45:44;;;;;;;0.50;0.50;;;21.30;99.90;;;;;;5037600;28;20480;-90
2023/05/24 11:48:11;;;;;;;0.60;0.50;;;21.50;99.90;;;;;;5055271;28;20060;-90
2023/05/24 11:50:45;;;;;;;0.80;0.80;;;21.50;99.90;;;;;;5055255;28;20480;-90
2023/05/24 11:53:16;;;;;;;0.60;0.60;;;21.50;99.90;;;;;;5037580;28;20068;-90
2023/05/24 11:55:41;;;;;;;0.90;0.88;;;21.40;99.90;;;;;;5055578;28;20063;-89
2023/05/24 11:58:18;;;;;;;1.08;0.98;;;21.40;99.90;;;;;;5037373;28;20072;-90
2023/05/24 12:00:46;;;;;;;0.60;0.52;;;21.80;99.90;;;;;;5037930;28;20032;-88
2023/05/24 12:03:11;;;;;;;0.30;0.30;;;22.10;99.90;;;;;;5055172;28;20036;-88
2023/05/24 12:05:37;;;;;;;0.40;0.40;;;22.40;99.90;;;;;;5055429;28;20028;-90
2023/05/24 12:08:05;;;;;;;0.50;0.50;;;21.80;99.90;;;;;;5055587;28;20040;-90
2023/05/24 12:10:33;;;;;;;0.40;0.35;;;21.90;99.90;;;;;;5038072;28;20126;-90
2023/05/24 12:12:58;;;;;;;0.95;0.40;;;22.00;99.90;;;;;;5055323;28;20017;-90
2023/05/24 12:15:24;;;;;;;0.50;0.50;;;22.20;99.90;;;;;;5037255;28;20539;-90
2023/05/24 12:17:50;;;;;;;1.33;0.73;;;22.30;99.90;;;;;;5054924;28;20028;-90
2023/05/24 12:20:18;;;;;;;0.60;0.60;;;22.40;99.90;;;;;;5055003;28;20029;-90
2023/05/24 12:22:51;;;;;;;0.32;0.22;;;22.40;99.90;;;;;;5037322;28;20032;-90
2023/05/24 12:25:21;;;;;;;0.90;0.90;;;22.90;99.90;;;;;;5055253;28;20067;-89
2023/05/24 12:27:55;;;;;;;0.40;0.40;;;23.40;99.90;;;;;;5054767;28;20048;-91
2023/05/24 12:30:25;;;;;;;0.30;0.30;;;24.00;99.90;;;;;;5054461;28;20504;-90
2023/05/24 12:32:54;;;;;;;0.82;0.70;;;23.90;99.90;;;;;;5054977;28;20025;-91
2023/05/24 12:35:21;;;;;;;1.45;1.13;;;24.20;99.90;;;;;;5054647;28;20108;-90
2023/05/24 12:37:47;;;;;;;0.30;0.30;;;24.00;99.90;;;;;;5054285;28;20060;-91
2023/05/24 12:40:20;;;;;;;0.60;0.55;;;24.00;99.90;;;;;;5054936;28;20021;-90
2023/05/24 12:42:55;;;;;;;0.65;0.65;;;23.50;99.90;;;;;;5036470;28;20029;-90
2023/05/24 12:45:24;;;;;;;0.82;0.65;;;23.70;99.90;;;;;;5054161;28;20024;-90
2023/05/24 12:47:57;;;;;;;0.57;0.57;;;23.10;99.90;;;;;;5054268;28;20035;-90
2023/05/24 12:50:25;;;;;;;0.60;0.60;;;23.00;99.90;;;;;;5054490;28;20021;-90
2023/05/24 12:52:52;;;;;;;0.80;0.70;;;22.80;99.90;;;;;;5054136;28;20029;-90